createdAt,value
2022-08-04T01:34:03.023Z,9.97
2022-08-04T01:43:23.880Z,10.30
2022-08-04T01:51:48.127Z,12.00
2022-08-04T01:56:02.332Z,7.60
2022-08-04T02:00:21.881Z,10.13
2022-08-04T02:09:04.466Z,8.87
2022-08-04T02:13:30.633Z,11.43
2022-08-04T02:17:15.475Z,10.27
2022-08-04T02:21:18.477Z,11.60
2022-08-04T02:25:06.526Z,9.67
2022-08-04T02:28:54.651Z,7.50
2022-08-04T02:32:47.368Z,9.60
2022-08-04T02:36:38.815Z,7.50
2022-08-04T02:40:49.487Z,9.57
2022-08-04T02:44:37.855Z,8.40
2022-08-04T02:48:39.978Z,10.77
2022-08-04T02:52:17.036Z,9.80
2022-08-04T02:56:12.610Z,11.30
2022-08-04T03:00:08.261Z,7.03
2022-08-04T03:04:34.616Z,11.10
2022-08-04T03:08:57.545Z,7.87
2022-08-04T03:12:59.257Z,8.87
2022-08-04T03:17:04.204Z,7.80
2022-08-04T03:21:10.004Z,7.87
2022-08-04T03:25:24.453Z,10.63
2022-08-04T03:29:37.438Z,8.70
2022-08-04T03:34:00.143Z,7.47
2022-08-04T03:38:07.618Z,10.00
2022-08-04T03:42:08.326Z,9.00
2022-08-04T03:46:20.588Z,9.10
2022-08-04T03:50:25.331Z,10.53
2022-08-04T03:54:20.503Z,11.50
2022-08-04T03:58:36.561Z,10.30
2022-08-04T04:02:57.797Z,8.10
2022-08-04T04:07:27.262Z,8.73
2022-08-04T04:11:35.807Z,13.23
2022-08-04T04:15:49.799Z,7.60
2022-08-04T04:19:58.627Z,10.00
2022-08-04T04:23:45.124Z,7.77
2022-08-04T04:27:29.930Z,10.57
2022-08-04T04:31:28.449Z,9.57
2022-08-04T04:35:15.230Z,10.10
2022-08-04T04:39:12.970Z,9.10
2022-08-04T04:43:14.422Z,13.20
2022-08-04T04:46:59.079Z,9.27
2022-08-04T04:50:43.149Z,11.90
2022-08-04T04:54:31.512Z,11.37
2022-08-04T04:58:08.083Z,11.17
2022-08-04T05:02:20.424Z,8.93
2022-08-04T05:06:21.005Z,9.93
2022-08-04T05:10:06.847Z,11.93
2022-08-04T05:14:38.230Z,8.03
2022-08-04T05:18:08.194Z,9.30
2022-08-04T05:21:59.574Z,7.03
2022-08-04T05:25:58.981Z,9.63
2022-08-04T05:29:55.544Z,10.07
2022-08-04T05:34:02.087Z,6.83
2022-08-04T05:38:04.595Z,7.53
2022-08-04T05:42:05.154Z,8.70
2022-08-04T05:59:41.395Z,6.73
2022-08-04T06:28:24.059Z,5.90
2022-08-04T06:32:31.344Z,7.63
2022-08-04T06:56:03.095Z,5.67
2022-08-04T06:59:30.470Z,5.53
2022-08-04T07:02:54.852Z,5.67
2022-08-04T07:06:18.990Z,5.07
2022-08-04T07:09:44.459Z,5.87
2022-08-04T07:13:09.421Z,7.07
2022-08-04T07:16:35.426Z,5.23
2022-08-04T07:19:59.748Z,6.17
2022-08-04T07:23:25.840Z,6.17
2022-08-04T07:26:54.630Z,4.70
2022-08-04T07:30:23.057Z,5.33
2022-08-04T07:34:16.943Z,7.30
2022-08-04T07:37:39.914Z,5.40
2022-08-04T07:44:58.581Z,5.67
2022-08-04T07:48:26.505Z,5.50
2022-08-04T07:51:56.978Z,5.30
2022-08-04T07:55:23.181Z,5.20
2022-08-04T07:58:50.953Z,4.20
2022-08-04T08:02:22.274Z,5.10
2022-08-04T08:06:16.508Z,4.70
2022-08-04T08:09:35.485Z,5.00
2022-08-04T08:13:01.519Z,5.27
2022-08-04T08:16:27.143Z,4.50
2022-08-04T08:19:54.367Z,4.57
2022-08-04T08:23:19.379Z,4.50
2022-08-04T08:26:48.508Z,4.50
2022-08-04T08:30:14.378Z,4.90
2022-08-04T08:33:38.699Z,4.70
2022-08-04T08:37:18.105Z,5.00
2022-08-04T08:40:54.864Z,4.40
2022-08-04T08:44:57.627Z,4.90
2022-08-04T08:48:49.833Z,4.63
2022-08-04T08:53:00.653Z,5.33
2022-08-04T08:56:21.146Z,5.30
2022-08-04T09:00:08.049Z,5.07
2022-08-04T09:04:04.449Z,5.20
2022-08-04T09:07:43.035Z,4.80
2022-08-04T09:11:11.084Z,4.43
2022-08-04T09:14:42.913Z,4.60
2022-08-04T09:18:12.486Z,4.17
2022-08-04T09:21:41.104Z,4.70
2022-08-04T09:25:13.342Z,4.57
2022-08-04T09:28:54.321Z,4.53
2022-08-04T09:32:28.573Z,4.50
2022-08-04T09:35:59.734Z,4.93
2022-08-04T09:39:27.842Z,4.60
2022-08-04T09:43:05.249Z,4.67
2022-08-04T09:46:37.699Z,4.83
2022-08-04T09:50:13.273Z,4.53
2022-08-04T09:53:51.104Z,4.93
2022-08-04T09:57:23.572Z,4.40
2022-08-04T10:00:52.568Z,5.03
2022-08-04T10:04:19.773Z,4.70
2022-08-04T10:07:59.722Z,4.50
2022-08-04T10:11:56.871Z,4.93
2022-08-04T10:15:28.005Z,4.30
2022-08-04T10:19:07.843Z,5.20
2022-08-04T10:22:55.528Z,4.90
2022-08-04T10:26:31.797Z,4.40
2022-08-04T10:30:03.811Z,4.47
2022-08-04T10:33:33.755Z,4.50
2022-08-04T10:37:07.256Z,4.60
2022-08-04T10:40:38.329Z,4.30
2022-08-04T10:44:14.592Z,4.13
2022-08-04T10:47:44.951Z,4.53
2022-08-04T10:51:24.856Z,4.57
2022-08-04T10:54:55.808Z,3.90
2022-08-04T10:58:22.950Z,4.57
2022-08-04T11:02:21.960Z,4.70
2022-08-04T11:05:49.922Z,4.43
2022-08-04T11:09:15.810Z,4.37
2022-08-04T11:12:43.321Z,4.40
2022-08-04T11:16:15.626Z,4.37
2022-08-04T11:19:53.571Z,4.63
2022-08-04T11:23:21.662Z,3.97
2022-08-04T11:26:49.577Z,4.20
2022-08-04T11:30:17.684Z,4.50
2022-08-04T11:33:48.187Z,4.50
2022-08-04T11:37:18.417Z,5.30
2022-08-04T11:40:55.896Z,4.03
2022-08-04T11:44:32.714Z,4.40
2022-08-04T11:48:02.199Z,4.20
2022-08-04T11:51:29.034Z,4.87
2022-08-04T11:54:54.403Z,4.57
2022-08-04T11:58:18.568Z,4.63
2022-08-04T12:01:57.434Z,4.30
2022-08-04T12:05:35.840Z,4.47
2022-08-04T12:09:10.654Z,4.20
2022-08-04T12:12:43.057Z,4.23
2022-08-04T12:16:19.121Z,4.27
2022-08-04T12:20:04.079Z,4.23
2022-08-04T12:23:41.017Z,4.10
2022-08-04T12:27:13.157Z,4.27
2022-08-04T12:30:59.876Z,4.60
2022-08-04T12:34:33.117Z,4.53
2022-08-04T12:38:02.827Z,4.00
2022-08-04T12:41:35.447Z,4.20
2022-08-04T12:45:00.842Z,4.53
2022-08-04T12:48:26.477Z,4.60
2022-08-04T12:52:07.539Z,4.70
2022-08-04T12:55:35.289Z,5.13
2022-08-04T12:59:05.227Z,4.43
2022-08-04T13:02:32.364Z,4.17
2022-08-04T13:05:56.842Z,4.17
2022-08-04T13:09:21.950Z,4.60
2022-08-04T13:12:57.186Z,4.03
2022-08-04T13:16:30.896Z,4.20
2022-08-04T13:19:56.198Z,4.00
2022-08-04T13:23:21.971Z,4.27
2022-08-04T13:26:56.794Z,4.60
2022-08-04T13:30:22.930Z,4.30
2022-08-04T13:33:50.555Z,4.20
2022-08-04T13:37:20.848Z,4.53
2022-08-04T13:40:45.886Z,4.60
2022-08-04T13:44:18.949Z,4.27
2022-08-04T13:47:44.571Z,4.30
2022-08-04T13:51:11.994Z,4.43
2022-08-04T13:54:42.874Z,4.00
2022-08-04T13:58:10.695Z,4.07
2022-08-04T14:01:38.120Z,4.40
2022-08-04T14:05:18.394Z,4.27
2022-08-04T14:08:51.184Z,4.23
2022-08-04T14:12:45.455Z,5.40
2022-08-04T14:16:03.764Z,4.60
2022-08-04T14:19:36.073Z,4.70
2022-08-04T14:23:02.443Z,6.00
2022-08-04T14:26:32.163Z,4.13
2022-08-04T14:29:57.051Z,4.30
2022-08-04T14:34:00.696Z,4.50
2022-08-04T14:37:17.605Z,4.30
2022-08-04T14:40:45.006Z,4.20
2022-08-04T14:44:10.172Z,4.20
2022-08-04T14:47:41.686Z,4.07
2022-08-04T14:51:16.883Z,4.23
2022-08-04T14:54:50.104Z,4.17
2022-08-04T14:58:33.911Z,4.57
2022-08-04T15:02:04.077Z,4.80
2022-08-04T15:06:01.588Z,4.10
2022-08-04T15:09:21.889Z,4.30
2022-08-04T15:12:46.075Z,4.27
2022-08-04T15:16:12.419Z,4.40
2022-08-04T15:19:38.506Z,4.50
2022-08-04T15:23:08.646Z,4.33
2022-08-04T15:26:39.888Z,4.10
2022-08-04T15:30:08.655Z,4.77
2022-08-04T15:33:34.578Z,4.30
2022-08-04T15:37:04.316Z,4.00
2022-08-04T15:40:33.355Z,4.07
2022-08-04T15:44:18.018Z,4.17
2022-08-04T15:47:42.348Z,4.17
2022-08-04T15:51:32.258Z,4.40
2022-08-04T15:55:32.589Z,4.27
2022-08-04T15:58:58.359Z,4.20
2022-08-04T16:02:46.187Z,4.10
2022-08-04T16:06:51.829Z,4.30
2022-08-04T16:10:39.633Z,4.17
2022-08-04T16:14:12.515Z,4.40
2022-08-04T16:17:41.955Z,4.10
2022-08-04T16:21:07.589Z,4.20
2022-08-04T16:24:36.123Z,4.17
2022-08-04T16:28:01.228Z,4.20
2022-08-04T16:31:25.164Z,4.00
2022-08-04T16:34:56.477Z,4.30
2022-08-04T16:38:23.435Z,4.40
2022-08-04T16:41:49.687Z,4.23
2022-08-04T16:45:15.592Z,4.47
2022-08-04T16:48:39.372Z,4.50
2022-08-04T16:52:04.728Z,4.20
2022-08-04T16:55:29.771Z,4.30
2022-08-04T16:58:54.315Z,4.20
2022-08-04T17:02:26.102Z,4.40
2022-08-04T17:05:50.754Z,4.43
2022-08-04T17:09:16.183Z,4.00
2022-08-04T17:12:39.918Z,4.10
2022-08-04T17:16:09.341Z,4.20
2022-08-04T17:19:36.942Z,3.90
2022-08-04T17:24:14.020Z,4.20
2022-08-04T17:28:09.475Z,3.90
2022-08-04T17:31:03.090Z,4.10
2022-08-04T17:34:26.981Z,4.30
2022-08-04T17:37:53.638Z,3.97
2022-08-04T17:49:06.548Z,4.60
2022-08-04T17:56:32.695Z,4.10
2022-08-04T17:59:59.652Z,4.93
2022-08-04T18:03:25.459Z,3.93
2022-08-04T18:06:54.639Z,4.30
2022-08-04T18:10:43.220Z,4.77
2022-08-04T18:14:28.863Z,4.30
2022-08-04T18:18:20.776Z,3.80
2022-08-04T18:21:46.478Z,4.10
2022-08-04T18:25:21.973Z,3.87
2022-08-04T18:29:07.731Z,3.90
2022-08-04T18:33:24.223Z,3.80
2022-08-04T18:36:38.892Z,9.33
2022-08-04T18:40:27.933Z,5.03
2022-08-04T18:43:55.851Z,4.60
2022-08-04T18:47:23.067Z,4.60
2022-08-04T18:51:09.804Z,5.40
2022-08-04T18:54:34.035Z,5.33
2022-08-04T18:58:01.419Z,5.07
2022-08-04T19:02:12.382Z,4.60
2022-08-04T19:08:58.736Z,5.97
2022-08-04T19:12:26.752Z,4.50
2022-08-04T19:15:51.794Z,4.80
2022-08-04T19:19:17.898Z,4.87
2022-08-04T19:24:11.269Z,8.30
2022-08-04T19:26:28.616Z,5.00
2022-08-04T19:29:52.385Z,6.37
2022-08-04T19:33:17.984Z,6.03
2022-08-04T19:36:48.857Z,5.83
2022-08-04T19:40:13.771Z,6.70
2022-08-04T19:43:44.020Z,5.20
2022-08-04T19:48:16.233Z,5.23
2022-08-04T19:50:51.653Z,5.47
2022-08-04T19:54:23.615Z,6.20
2022-08-04T19:57:49.581Z,7.27
2022-08-04T20:01:33.586Z,7.17
2022-08-04T20:04:58.609Z,8.50
2022-08-04T20:08:23.608Z,5.70
2022-08-04T20:11:47.596Z,5.93
2022-08-04T20:15:14.973Z,6.97
2022-08-04T20:18:55.462Z,6.80
2022-08-04T20:22:52.771Z,10.73
2022-08-04T20:26:06.166Z,9.33
2022-08-04T20:29:40.925Z,6.67
2022-08-04T20:33:06.989Z,6.73
2022-08-04T20:36:41.005Z,6.23
2022-08-04T20:40:14.567Z,6.50
2022-08-04T20:43:38.551Z,6.67
2022-08-04T20:47:02.346Z,7.50
2022-08-04T20:50:29.830Z,7.57
2022-08-04T20:53:55.567Z,6.87
2022-08-04T20:57:19.426Z,7.13
2022-08-04T21:01:03.341Z,7.10
2022-08-04T21:09:09.658Z,6.83
2022-08-04T21:12:39.560Z,8.03
2022-08-04T21:16:04.382Z,6.30
2022-08-04T21:19:30.597Z,7.23
2022-08-04T21:22:55.469Z,5.97
2022-08-04T21:26:25.986Z,8.00
2022-08-04T21:29:49.908Z,6.40
2022-08-04T21:33:13.886Z,6.53
2022-08-04T21:36:38.361Z,8.60
2022-08-04T21:40:14.209Z,9.53
2022-08-04T21:43:42.970Z,10.80
2022-08-04T21:47:14.051Z,6.70
2022-08-04T21:50:50.477Z,8.33
2022-08-04T21:54:17.042Z,6.57
2022-08-04T21:57:42.027Z,9.70
2022-08-04T22:01:13.311Z,6.83
2022-08-04T22:09:04.315Z,8.23
2022-08-04T22:12:53.474Z,5.83
2022-08-04T22:16:19.286Z,7.23
2022-08-04T22:40:39.139Z,8.30
2022-08-04T22:44:03.266Z,6.90
2022-08-04T23:12:24.582Z,9.33
